Flight Track Log - Related Links

Times and Time Zones

All times are in EDT time to prevent confusion due to time zone crossing. See the GJS3649 flight status page for this flight to view local times or setup timezone preferences in your user account.

Time Position Orientation Groundspeed Altitude Reporting Facility
EDT Latitude Longitude Course Direction KTS MPH feet Rate Location/Type
Sat 04:09:19 PM 42.0000 -87.8667 90° East 162 186 1,900  Level Chicago TRACON
Sat 04:10:13 PM 42.0000 -87.8000 90° East 220 253 3,600 1,632 Climbing Chicago TRACON
Sat 04:11:13 PM 42.0000 -87.7000 90° East 262 302 5,000 1,941 Climbing Chicago TRACON
Sat 04:12:29 PM 41.9986 -87.5997 91° East 269 310 8,000 2,739 Climbing Chicago Center
Sat 04:13:31 PM 41.9856 -87.4725 98° East 285 328 11,300 2,780 Climbing Chicago Center
Sat 04:14:32 PM 41.9744 -87.3614 98° East 297 342 13,700 1,805 Climbing Chicago Center
Sat 04:15:34 PM 41.9633 -87.2467 97° East 309 356 15,000 1,258 Climbing Chicago Center
Sat 04:16:36 PM 41.9583 -87.1200 93° East 342 394 16,300 1,659 Climbing Chicago Center
Sat 04:17:37 PM 41.9628 -86.9842 87° East 364 419 18,400 1,902 Climbing Chicago Center
Sat 04:18:39 PM 41.9686 -86.8439 87° East 377 434 20,200 1,887 Climbing Chicago Center
Sat 04:19:41 PM 41.9803 -86.6781 85° East 387 445 22,300 1,854 Climbing Chicago Center
Sat 04:20:42 PM 41.9933 -86.5319 83° East 394 453 24,000 1,463 Climbing Chicago Center
Sat 04:21:44 PM 42.0219 -86.3886 75° East 400 460 25,300 968 Climbing Chicago Center
Sat 04:22:46 PM 42.0389 -86.2344 82° East 419 482 26,000 878 Climbing Chicago Center
Sat 04:23:47 PM 42.0494 -86.0742 85° East 427 491 27,100 1,415 Climbing Chicago Center
Sat 04:24:49 PM 42.0472 -85.8972 91° East 424 488 28,900 1,306 Climbing Chicago Center
Sat 04:25:51 PM 42.0350 -85.7397 96° East 425 489 29,800 927 Climbing Chicago Center
Sat 04:26:52 PM 42.0206 -85.5800 97° East 431 496 30,800 976 Climbing Chicago Center
Sat 04:27:54 PM 42.0053 -85.4167 97° East 441 507 31,800 1,161 Climbing Chicago Center
Sat 04:28:56 PM 41.9914 -85.2333 96° East 440 506 33,200 1,122 Climbing Chicago Center
Sat 04:29:57 PM 41.9792 -85.0711 96° East 435 501 34,100 878 Climbing Chicago Center
Sat 04:30:59 PM 41.9647 -84.9064 97° East 440 506 35,000 968 Climbing Chicago Center
Sat 04:32:01 PM 41.9311 -84.7492 106° East 439 505 36,100 871 Climbing Chicago Center
Sat 04:33:03 PM 41.8403 -84.6439 139° Southeast 434 499 36,800 587 Climbing Chicago Center
Sat 04:33:33 PM 41.7836 -84.5881 144° Southeast 411 473 37,000 133 Climbing Cleveland Center
Sat 04:34:33 PM 41.6806 -84.4953 146° Southeast 432 497 37,000  Level Cleveland Center
Sat 04:35:33 PM 41.5894 -84.4147 147° Southeast 442 509 37,000  Level Cleveland Center
Sat 04:36:08 PM 41.5308 -84.3653 148° Southeast 453 521 37,000  Level Chicago Center
Sat 04:37:09 PM 41.4206 -84.2922 154° Southeast 441 507 37,000  Level Chicago Center
Sat 04:38:11 PM 41.3017 -84.1653 141° Southeast 456 525 37,000  Level Chicago Center
Sat 04:39:13 PM 41.2133 -84.0433 134° Southeast 458 527 37,000  Level Chicago Center
Sat 04:40:15 PM 41.1169 -83.9358 140° Southeast 455 524 37,000  Level Chicago Center
Sat 04:40:50 PM 41.0608 -83.8844 145° Southeast 460 529 37,000 313 Level Indianapolis Center
Sat 04:41:51 PM 40.9372 -83.7956 151° Southeast 464 534 37,500 492 Climbing Indianapolis Center
Sat 04:42:52 PM 40.8169 -83.7347 159° South 460 529 38,000 244 Climbing Indianapolis Center
Sat 04:43:54 PM 40.6967 -83.6783 160° South 456 525 38,000 49 Level Indianapolis Center
Sat 04:44:55 PM 40.5781 -83.6256 161° South 447 514 38,100 341 Climbing Indianapolis Center
Sat 04:45:57 PM 40.4606 -83.5683 160° South 445 512 38,700 439 Climbing Indianapolis Center
Sat 04:46:58 PM 40.3492 -83.4975 154° Southeast 440 506 39,000 146 Climbing Indianapolis Center
Sat 04:48:00 PM 40.2439 -83.4003 145° Southeast 455 524 39,000  Level Indianapolis Center
Sat 04:49:01 PM 40.1486 -83.2797 136° Southeast 466 536 39,000  Level Indianapolis Center
Sat 04:50:02 PM 40.0572 -83.1539 133° Southeast 467 537 39,000  Level Indianapolis Center
Sat 04:51:04 PM 39.9625 -83.0336 136° Southeast 468 539 39,000  Level Indianapolis Center
Sat 04:52:05 PM 39.8697 -82.9103 134° Southeast 469 540 39,000  Level Indianapolis Center
Sat 04:53:07 PM 39.7781 -82.7872 134° Southeast 468 539 39,000  Level Indianapolis Center
Sat 04:54:08 PM 39.6711 -82.6453 134° Southeast 466 536 39,000  Level Indianapolis Center
Sat 04:55:10 PM 39.5808 -82.5219 134° Southeast 466 536 39,000  Level Indianapolis Center
Sat 04:56:11 PM 39.4906 -82.4003 134° Southeast 463 533 39,000  Level Indianapolis Center
Sat 04:57:13 PM 39.4014 -82.2789 134° Southeast 463 533 39,000  Level Indianapolis Center
Sat 04:58:14 PM 39.3125 -82.1575 133° Southeast 464 534 39,000  Level Indianapolis Center
Sat 04:59:16 PM 39.2142 -82.0561 141° Southeast 453 521 39,000  Level Indianapolis Center
Sat 05:00:17 PM 39.1167 -81.9467 139° Southeast 460 529 39,000  Level Indianapolis Center
Sat 05:01:19 PM 39.0158 -81.8367 140° Southeast 473 544 39,000  Level Indianapolis Center
Sat 05:02:20 PM 38.9153 -81.7261 139° Southeast 476 548 39,000  Level Indianapolis Center
Sat 05:03:22 PM 38.8136 -81.6144 139° Southeast 478 550 39,000 -293 Level Indianapolis Center
Sat 05:04:23 PM 38.6911 -81.4831 140° Southeast 482 555 38,400 -732 Descending Indianapolis Center
Sat 05:05:25 PM 38.6003 -81.3869 140° Southeast 472 543 37,500 -878 Descending Indianapolis Center
Sat 05:06:26 PM 38.5003 -81.2808 140° Southeast 467 537 36,600 -878 Descending Indianapolis Center
Sat 05:07:28 PM 38.4039 -81.1778 140° Southeast 456 525 35,700 -878 Descending Indianapolis Center
Sat 05:08:29 PM 38.3081 -81.0761 140° Southeast 444 511 34,800 -976 Descending Indianapolis Center
Sat 05:09:31 PM 38.1878 -80.9481 140° Southeast 467 537 33,700 -976 Descending Indianapolis Center
Sat 05:10:32 PM 38.0856 -80.8417 141° Southeast 474 545 32,800 -878 Descending Indianapolis Center
Sat 05:11:34 PM 37.9822 -80.7339 141° Southeast 478 550 31,900 -878 Descending Indianapolis Center
Sat 05:12:35 PM 37.8803 -80.6278 141° Southeast 477 549 31,000 -878 Descending Indianapolis Center
Sat 05:13:37 PM 37.7819 -80.5247 140° Southeast 463 533 30,100 -1,171 Descending Indianapolis Center
Sat 05:14:38 PM 37.6892 -80.4289 141° Southeast 448 516 28,600 -1,659 Descending Indianapolis Center
Sat 05:15:40 PM 37.5817 -80.3172 141° Southeast 430 495 26,700 -1,659 Descending Indianapolis Center
Sat 05:16:41 PM 37.4928 -80.2258 141° Southeast 425 489 25,200 -1,317 Descending Indianapolis Center
Sat 05:17:43 PM 37.4064 -80.1306 139° Southeast 426 490 24,000 -585 Descending Indianapolis Center
Sat 05:18:44 PM 37.3042 -80.0064 136° Southeast 442 509 24,000  Level Indianapolis Center
Sat 05:19:46 PM 37.2164 -79.9000 136° Southeast 452 520 24,000 -98 Level Indianapolis Center
Sat 05:20:47 PM 37.1250 -79.7919 137° Southeast 462 532 23,800 -634 Descending Indianapolis Center
Sat 05:21:49 PM 37.0383 -79.6872 136° Southeast 452 520 22,700 -1,128 Descending Indianapolis Center
Sat 05:23:00 PM 36.9269 -79.5567 137° Southeast 456 525 21,300 -1,070 Descending Washington Center
Sat 05:23:58 PM 36.8286 -79.4428 137° Southeast 449 517 20,400 -1,462 Descending Washington Center
Sat 05:24:59 PM 36.7442 -79.3400 136° Southeast 444 511 18,400 -2,213 Descending Washington Center
Sat 05:26:00 PM 36.6656 -79.2481 137° Southeast 425 489 15,900 -2,536 Descending Washington Center
Sat 05:26:36 PM 36.6172 -79.1942 138° Southeast 368 423 14,300 -1,838 Descending Washington Center
Sat 05:27:51 PM 36.5325 -79.0919 136° Southeast 332 382 12,500 -1,268 Descending Washington Center
Sat 05:28:58 PM 36.4619 -79.0114 137° Southeast 330 380 11,300 -1,056 Descending Washington Center
Sat 05:29:56 PM 36.4014 -78.9389 136° Southeast 303 349 10,300 -1,240 Descending Washington Center
Sat 05:30:59 PM 36.3297 -78.8894 151° Southeast 289 333 8,800 -1,537 Descending Washington Center
Sat 05:31:57 PM 36.2578 -78.8556 159° South 280 322 7,200 -1,261 Descending Washington Center
Sat 05:32:58 PM 36.1858 -78.8142 155° Southeast 278 320 6,300 -1,138 Descending Washington Center
Sat 05:33:53 PM 36.1281 -78.7886 160° South 257 296 5,000 -1,552 Descending Washington Center
Sat 05:34:54 PM 36.0581 -78.7550 159° South 249 287 3,300 -1,377 Descending Washington Center
Sat 05:35:55 PM 35.9939 -78.7344 165° South 236 272 2,200 -850 Descending Washington Center
Sat 05:37:01 PM 35.9394 -78.7372 182° South 156 180 1,500 -614 Descending Washington Center
Sat 05:38:02 PM 35.9075 -78.7617 212° Southwest 126 145 900 -590 Descending Washington Center
Sat 05:40:00 PM 35.8776 -78.7875 90° East  Level Estimated

Login

Don't have an account? Register now (free) for customized features, flight alerts, and more!